createdAt,value
2022-11-02T09:28:19.447Z,18.42
2022-11-02T09:30:53.772Z,17.30
2022-11-02T09:33:29.928Z,16.10
2022-11-02T09:36:04.995Z,15.88
2022-11-02T09:38:38.852Z,17.55
2022-11-02T09:41:22.465Z,17.95
2022-11-02T09:44:04.351Z,16.73
2022-11-02T09:46:40.577Z,17.20
2022-11-02T09:49:18.349Z,15.95
2022-11-02T09:51:54.234Z,17.90
2022-11-02T09:54:31.684Z,18.63
2022-11-02T09:57:10.514Z,17.10
2022-11-02T09:59:45.865Z,17.85
2022-11-02T10:02:28.863Z,18.23
2022-11-02T10:05:19.728Z,15.60
2022-11-02T10:08:21.547Z,17.27
2022-11-02T10:11:08.252Z,17.02
2022-11-02T10:13:51.219Z,16.60
2022-11-02T10:16:36.054Z,17.55
2022-11-02T10:19:14.916Z,16.77
2022-11-02T10:21:51.746Z,17.85
2022-11-02T10:24:27.495Z,16.38
2022-11-02T10:27:04.339Z,15.95
2022-11-02T10:29:46.790Z,16.58
2022-11-02T10:32:22.203Z,16.70
2022-11-02T10:34:59.162Z,16.15
2022-11-02T10:38:09.355Z,15.32
2022-11-02T10:41:00.154Z,18.15
2022-11-02T10:43:51.805Z,16.17
2022-11-02T10:46:49.244Z,17.10
2022-11-02T10:49:47.029Z,14.55
2022-11-02T10:52:21.214Z,16.00
2022-11-02T10:54:55.931Z,15.10
2022-11-02T10:57:30.200Z,15.52
2022-11-02T11:00:39.726Z,16.27
2022-11-02T11:03:15.629Z,14.93
2022-11-02T11:06:03.536Z,13.80
2022-11-02T11:08:40.981Z,15.63
2022-11-02T11:11:22.211Z,14.85
2022-11-02T11:16:56.219Z,13.15
2022-11-02T11:22:31.787Z,12.20
2022-11-02T11:25:27.530Z,12.05
2022-11-02T11:28:02.227Z,12.07
2022-11-02T11:30:59.006Z,11.60
2022-11-02T11:33:35.141Z,12.10
2022-11-02T11:36:11.147Z,11.82
2022-11-02T11:38:50.449Z,11.52
2022-11-02T11:41:25.490Z,13.18
2022-11-02T11:44:00.212Z,12.38
2022-11-02T11:46:42.592Z,12.98
2022-11-02T11:49:35.909Z,10.45
2022-11-02T11:52:27.011Z,12.90
2022-11-02T11:55:22.996Z,11.90
2022-11-02T11:58:17.276Z,11.98
2022-11-02T12:01:10.253Z,11.82
2022-11-02T12:03:55.711Z,13.23
2022-11-02T12:06:37.992Z,12.82
2022-11-02T12:09:22.852Z,12.95
2022-11-02T12:12:06.475Z,13.35
2022-11-02T12:14:55.305Z,12.77
2022-11-02T12:17:39.455Z,13.10
2022-11-02T12:23:00.417Z,13.05
2022-11-02T12:25:51.607Z,12.02
2022-11-02T12:28:35.703Z,13.43
2022-11-02T12:31:21.394Z,14.07
2022-11-02T12:34:15.491Z,13.60
2022-11-02T12:40:14.771Z,12.50
2022-11-02T12:42:57.307Z,12.15
2022-11-02T12:45:42.547Z,13.57
2022-11-02T12:48:24.734Z,13.45
2022-11-02T12:51:03.234Z,12.05
2022-11-02T12:53:45.422Z,11.95
2022-11-02T12:56:24.069Z,11.70
2022-11-02T12:58:58.596Z,11.27
2022-11-02T13:01:40.968Z,10.90
2022-11-02T13:04:24.544Z,11.77
2022-11-02T13:07:07.675Z,9.93
2022-11-02T13:09:51.342Z,11.10
2022-11-02T13:15:00.544Z,10.30
2022-11-02T13:17:43.379Z,10.70
2022-11-02T13:20:21.577Z,10.95
2022-11-02T13:23:02.299Z,10.48
2022-11-02T13:25:40.660Z,9.15
2022-11-02T13:28:18.697Z,10.38
2022-11-02T13:30:54.258Z,9.02
2022-11-02T13:33:36.429Z,10.57
2022-11-02T13:36:11.128Z,10.00
2022-11-02T13:38:51.448Z,9.30
2022-11-02T13:41:47.746Z,8.98
2022-11-02T13:44:46.561Z,9.52
2022-11-02T13:47:49.512Z,8.52
2022-11-02T13:50:28.084Z,8.55
2022-11-02T13:53:05.350Z,9.05
2022-11-02T13:55:46.065Z,7.78
2022-11-02T13:58:26.484Z,7.65
2022-11-02T14:01:03.524Z,7.90
2022-11-02T14:03:50.643Z,7.22
2022-11-02T14:06:27.469Z,6.80
2022-11-02T14:09:03.973Z,7.50
2022-11-02T14:11:49.421Z,7.15
2022-11-02T14:14:25.625Z,6.82
2022-11-02T14:17:11.269Z,6.47
2022-11-02T14:19:57.030Z,5.55
2022-11-02T14:22:33.181Z,6.45
2022-11-02T14:25:18.769Z,6.40
2022-11-02T14:27:56.690Z,6.57
2022-11-02T14:30:46.107Z,6.93
2022-11-02T14:33:36.445Z,6.32
2022-11-02T14:36:19.775Z,6.18
2022-11-02T14:39:01.280Z,6.18
2022-11-02T14:41:54.538Z,5.32
2022-11-02T14:45:09.962Z,5.95
2022-11-02T14:47:44.588Z,6.13
2022-11-02T14:50:21.044Z,6.05
2022-11-02T14:52:59.754Z,6.18
2022-11-02T14:55:36.450Z,5.90
2022-11-02T14:58:18.630Z,5.95
2022-11-02T15:00:59.347Z,6.03
2022-11-02T15:03:38.176Z,5.70
2022-11-02T15:06:19.718Z,6.15
2022-11-02T15:08:56.106Z,6.05
2022-11-02T15:11:49.682Z,5.30
2022-11-02T15:14:34.120Z,5.50
2022-11-02T15:17:41.261Z,5.57
2022-11-02T15:20:33.744Z,6.47
2022-11-02T15:23:29.954Z,6.68
2022-11-02T15:26:07.649Z,5.40
2022-11-02T15:28:46.089Z,5.50
2022-11-02T15:31:26.090Z,6.68
2022-11-02T15:34:04.061Z,6.53
2022-11-02T15:36:39.301Z,5.90
2022-11-02T15:39:13.965Z,5.68
2022-11-02T15:41:55.127Z,5.93
2022-11-02T15:45:14.238Z,6.25
2022-11-02T15:48:05.826Z,6.60
2022-11-02T15:50:49.105Z,5.70
2022-11-02T15:53:41.312Z,6.55
2022-11-02T15:56:33.526Z,6.55
2022-11-02T15:59:43.153Z,6.05
2022-11-02T16:02:25.885Z,6.28
2022-11-02T16:05:03.007Z,6.28
2022-11-02T16:07:57.331Z,5.93
2022-11-02T16:10:34.696Z,7.72
2022-11-02T16:13:17.521Z,7.88
2022-11-02T16:15:51.957Z,7.90
2022-11-02T16:18:29.396Z,7.72
2022-11-02T16:21:06.381Z,8.02
2022-11-02T16:23:43.245Z,7.90
2022-11-02T16:26:22.279Z,7.80
2022-11-02T16:28:57.917Z,7.57
2022-11-02T16:31:32.260Z,7.18
2022-11-02T16:34:24.156Z,9.10
2022-11-02T16:36:59.331Z,7.75
2022-11-02T16:39:37.512Z,7.13
2022-11-02T16:42:17.666Z,7.10
2022-11-02T16:44:58.617Z,7.07
2022-11-02T16:47:41.844Z,7.40
2022-11-02T16:50:25.464Z,7.93
2022-11-02T16:53:01.626Z,8.68
2022-11-02T16:55:41.729Z,7.90
2022-11-02T16:58:20.232Z,7.88
2022-11-02T17:00:57.034Z,7.82
2022-11-02T17:03:33.285Z,8.15
2022-11-02T17:06:09.465Z,8.55
2022-11-02T17:08:45.740Z,6.72
2022-11-02T17:11:20.361Z,8.18
2022-11-02T17:13:57.152Z,9.02
2022-11-02T17:16:34.978Z,8.77
2022-11-02T17:19:51.479Z,8.38
2022-11-02T17:22:28.258Z,8.68
2022-11-02T17:25:13.590Z,8.90
2022-11-02T17:27:48.043Z,7.13
2022-11-02T17:30:44.822Z,8.45
2022-11-02T17:33:25.915Z,8.50
2022-11-02T17:36:11.492Z,8.23
2022-11-02T17:38:47.284Z,8.52
2022-11-02T17:41:38.926Z,9.35
2022-11-02T17:44:17.802Z,9.65
2022-11-02T17:46:51.869Z,10.85
2022-11-02T17:49:25.912Z,10.23
2022-11-02T17:52:00.033Z,10.40
2022-11-02T17:54:35.326Z,11.77
2022-11-02T17:57:14.396Z,10.13
2022-11-02T17:59:48.443Z,8.88
2022-11-02T18:02:22.643Z,10.80
2022-11-02T18:04:56.596Z,9.50
2022-11-02T18:07:30.546Z,9.95
2022-11-02T18:10:06.291Z,11.18
2022-11-02T18:12:40.121Z,9.90
2022-11-02T18:17:51.050Z,9.70
2022-11-02T18:20:27.530Z,10.18
2022-11-02T18:23:02.294Z,10.18
2022-11-02T18:25:37.683Z,10.15
2022-11-02T18:28:11.529Z,9.00
2022-11-02T18:30:45.639Z,8.85
2022-11-02T18:33:19.517Z,9.48
2022-11-02T18:35:53.458Z,9.43
2022-11-02T18:38:27.516Z,8.02
2022-11-02T18:41:26.738Z,8.77
2022-11-02T18:44:06.573Z,8.15
2022-11-02T18:46:42.949Z,8.63
2022-11-02T18:49:16.804Z,8.90
2022-11-02T18:54:24.867Z,9.40
2022-11-02T18:57:00.106Z,9.05
2022-11-02T18:59:34.548Z,8.57
2022-11-02T19:02:08.646Z,7.47
2022-11-02T19:04:42.760Z,7.70
2022-11-02T19:07:34.131Z,7.75
2022-11-02T19:10:08.579Z,8.02
2022-11-02T19:12:44.109Z,7.32
2022-11-02T19:15:18.445Z,8.80
2022-11-02T19:17:52.529Z,7.78
2022-11-02T19:20:27.706Z,7.40
2022-11-02T19:23:01.766Z,7.88
2022-11-02T19:25:36.196Z,7.07
2022-11-02T19:28:13.096Z,7.28
2022-11-02T19:30:47.597Z,7.80
2022-11-02T19:33:21.830Z,8.23
2022-11-02T19:35:56.775Z,7.68
2022-11-02T19:38:30.894Z,8.32
2022-11-02T19:41:06.421Z,8.93
2022-11-02T19:43:44.499Z,8.13
2022-11-02T19:46:20.289Z,8.35
2022-11-02T19:48:54.908Z,9.00
2022-11-02T19:51:30.369Z,8.10
2022-11-02T19:54:05.067Z,9.00
2022-11-02T19:56:39.404Z,8.80
2022-11-02T19:59:14.882Z,8.45
2022-11-02T20:01:50.759Z,8.65
2022-11-02T20:04:24.821Z,7.50
2022-11-02T20:06:59.877Z,8.48
2022-11-02T20:09:33.770Z,8.38
2022-11-02T20:12:08.547Z,9.13
2022-11-02T20:14:43.985Z,7.78
2022-11-02T20:17:31.236Z,8.13
2022-11-02T20:20:10.078Z,8.13
2022-11-02T20:22:45.223Z,8.85
2022-11-02T20:25:19.278Z,9.13
2022-11-02T20:27:53.534Z,9.35
2022-11-02T20:30:29.254Z,8.52
2022-11-02T20:33:03.489Z,8.60
2022-11-02T20:35:39.115Z,9.30
2022-11-02T20:38:13.049Z,7.78
2022-11-02T20:40:46.984Z,9.98
2022-11-02T20:43:21.104Z,8.85
2022-11-02T20:46:35.897Z,9.68
2022-11-02T20:49:08.585Z,8.52
2022-11-02T20:51:54.711Z,8.98
2022-11-02T20:54:30.107Z,9.98
2022-11-02T20:57:04.113Z,10.40
2022-11-02T20:59:38.163Z,8.95
2022-11-02T21:02:13.876Z,8.70
2022-11-02T21:04:48.103Z,9.15
2022-11-02T21:07:22.113Z,7.57
2022-11-02T21:09:56.326Z,8.52
2022-11-02T21:12:47.728Z,8.10
2022-11-02T21:15:21.849Z,7.35
2022-11-02T21:17:57.358Z,8.13
2022-11-02T21:20:34.720Z,7.82
2022-11-02T21:23:09.743Z,9.90
2022-11-02T21:25:43.733Z,9.82
2022-11-02T21:28:17.802Z,8.15
2022-11-02T21:30:51.823Z,8.95
2022-11-02T21:33:27.334Z,7.97
2022-11-02T21:36:02.679Z,9.05
2022-11-02T21:38:37.228Z,9.15
2022-11-02T21:41:11.614Z,7.72
2022-11-02T21:43:45.979Z,9.15
2022-11-02T21:46:20.852Z,7.60
2022-11-02T21:48:56.884Z,8.38
2022-11-02T21:51:31.603Z,8.25
2022-11-02T21:54:05.760Z,8.07
2022-11-02T21:56:40.117Z,8.38
2022-11-02T21:59:14.044Z,8.02
2022-11-02T22:01:49.042Z,7.45
2022-11-02T22:04:28.533Z,8.52
2022-11-02T22:07:03.766Z,7.60
2022-11-02T22:09:37.772Z,8.68
2022-11-02T22:12:29.126Z,8.25
2022-11-02T22:15:03.304Z,7.40
2022-11-02T22:17:49.663Z,8.20
2022-11-02T22:20:25.696Z,7.35
2022-11-02T22:22:59.818Z,7.85
2022-11-02T22:25:33.831Z,8.25
2022-11-02T22:28:07.859Z,8.10
2022-11-02T22:30:41.954Z,8.75
2022-11-02T22:33:16.048Z,7.65
2022-11-02T22:35:51.371Z,8.65
2022-11-02T22:38:42.995Z,7.18
2022-11-02T22:41:17.177Z,7.45
2022-11-02T22:43:52.796Z,7.78
2022-11-02T22:46:28.280Z,6.00
2022-11-02T22:49:04.865Z,7.30
2022-11-02T22:51:42.092Z,7.80
2022-11-02T22:54:17.320Z,7.45
2022-11-02T22:56:51.415Z,7.72
2022-11-02T22:59:25.546Z,8.05
2022-11-02T23:01:59.629Z,7.90
2022-11-02T23:04:34.286Z,7.72
2022-11-02T23:07:10.902Z,7.93
2022-11-02T23:09:45.061Z,8.23
2022-11-02T23:12:18.509Z,8.52
2022-11-02T23:14:53.042Z,7.00
2022-11-02T23:17:27.349Z,8.23
2022-11-02T23:20:00.568Z,7.70
2022-11-02T23:22:53.605Z,8.30
2022-11-02T23:25:27.584Z,8.60
2022-11-02T23:28:19.104Z,7.53
2022-11-02T23:31:13.915Z,8.25
2022-11-02T23:33:47.899Z,8.98
2022-11-02T23:36:21.298Z,9.02
2022-11-02T23:39:14.389Z,8.52
2022-11-02T23:41:48.550Z,8.00
2022-11-02T23:44:22.746Z,8.00
2022-11-02T23:46:56.604Z,7.93
2022-11-02T23:49:30.618Z,8.60
2022-11-02T23:52:22.134Z,8.35
2022-11-02T23:55:15.114Z,7.70
2022-11-02T23:57:49.042Z,8.50
